Time;durP1;ratioP1;P1;durP2;ratioP2;P2;SDS_P1;SDS_P2;PMS_P1;PMS_P2;Temp;Humidity;BMP_temperature;BMP_pressure;BME280_temperature;BME280_humidity;BME280_pressure;Samples;Min_cycle;Max_cycle;Signal;HPM_P1;HPM_P2
2023/07/24 00:01:17;;;;;;;83.80;52.80;;;20.10;82.50;;;;;;4952105;28;92335;-54
2023/07/24 00:03:43;;;;;;;84.65;52.88;;;20.10;82.80;;;;;;4952780;28;91196;-50
2023/07/24 00:06:09;;;;;;;84.13;52.75;;;20.10;84.90;;;;;;4955177;28;89478;-54
2023/07/24 00:08:35;;;;;;;82.88;52.42;;;20.10;83.00;;;;;;4950904;28;90807;-51
2023/07/24 00:11:02;;;;;;;84.88;53.03;;;20.10;82.20;;;;;;4952494;28;90263;-51
2023/07/24 00:13:28;;;;;;;84.22;53.00;;;20.10;85.10;;;;;;4954870;28;92848;-51
2023/07/24 00:15:53;;;;;;;85.15;52.85;;;20.10;86.70;;;;;;4953520;28;90538;-55
2023/07/24 00:18:19;;;;;;;84.03;52.70;;;20.10;84.20;;;;;;4951887;28;89511;-54
2023/07/24 00:20:45;;;;;;;83.78;52.72;;;20.10;85.50;;;;;;4950944;28;90860;-45
2023/07/24 00:23:10;;;;;;;84.38;52.90;;;20.10;82.50;;;;;;4960205;28;89952;-53
2023/07/24 00:25:36;;;;;;;84.18;52.85;;;20.10;83.50;;;;;;4954142;28;89248;-56
2023/07/24 00:28:01;;;;;;;84.15;52.85;;;20.10;83.60;;;;;;4953766;28;89290;-48
2023/07/24 00:30:27;;;;;;;83.50;52.75;;;20.10;84.60;;;;;;4953924;28;89618;-55
2023/07/24 00:32:52;;;;;;;83.30;52.55;;;20.10;82.10;;;;;;4952097;28;89551;-50
2023/07/24 00:35:18;;;;;;;84.10;52.75;;;20.10;81.70;;;;;;4953572;28;92127;-52
2023/07/24 00:37:44;;;;;;;83.78;52.67;;;20.10;82.80;;;;;;4951476;28;89985;-49
2023/07/24 00:40:10;;;;;;;83.32;52.72;;;20.10;83.00;;;;;;4956224;28;91942;-50
2023/07/24 00:42:35;;;;;;;83.80;52.75;;;20.00;82.90;;;;;;4949612;28;89986;-53
2023/07/24 00:45:01;;;;;;;84.05;52.72;;;20.00;83.40;;;;;;4949480;28;90513;-47
2023/07/24 00:47:29;;;;;;;84.00;52.63;;;20.00;83.50;;;;;;4953928;28;91816;-43
2023/07/24 00:49:55;;;;;;;84.45;52.85;;;20.00;84.80;;;;;;4954761;28;91996;-53
2023/07/24 00:52:21;;;;;;;84.07;52.70;;;20.00;84.70;;;;;;4949021;28;93178;-52
2023/07/24 00:54:47;;;;;;;83.95;52.67;;;20.00;83.30;;;;;;4955276;28;90676;-54
2023/07/24 00:57:13;;;;;;;84.75;52.90;;;20.00;83.30;;;;;;4950174;28;89917;-52
2023/07/24 00:59:41;;;;;;;83.35;52.75;;;20.00;82.20;;;;;;4951348;28;89707;-52
2023/07/24 01:02:07;;;;;;;83.40;52.58;;;20.00;84.60;;;;;;4946906;28;90351;-56
2023/07/24 01:04:33;;;;;;;83.65;52.85;;;20.00;82.10;;;;;;4954589;28;91805;-53
2023/07/24 01:06:59;;;;;;;83.82;52.70;;;20.00;83.60;;;;;;4951147;28;92849;-55
2023/07/24 01:09:25;;;;;;;84.07;52.47;;;20.00;82.50;;;;;;4949715;28;90808;-51
2023/07/24 01:11:57;;;;;;;84.15;52.78;;;19.90;83.20;;;;;;4948367;28;91085;-47
2023/07/24 01:14:29;;;;;;;83.93;52.70;;;19.90;82.90;;;;;;4952832;28;89362;-48
2023/07/24 01:16:58;;;;;;;83.50;52.75;;;19.90;82.60;;;;;;4955860;28;90174;-53
2023/07/24 01:19:42;;;;;;;83.25;52.45;;;19.90;82.60;;;;;;4932229;28;90412;-50
2023/07/24 01:22:29;;;;;;;84.13;52.83;;;19.90;82.70;;;;;;4955066;28;89886;-49
2023/07/24 01:25:22;;;;;;;84.03;52.83;;;19.90;83.20;;;;;;4952198;28;89981;-46
2023/07/24 01:27:47;;;;;;;82.95;52.67;;;19.90;82.30;;;;;;4953448;28;89654;-53
2023/07/24 01:30:18;;;;;;;83.05;52.42;;;19.90;82.30;;;;;;4946338;28;90029;-52
2023/07/24 01:32:43;;;;;;;83.15;52.50;;;19.90;84.00;;;;;;4951398;28;90127;-47
2023/07/24 01:35:09;;;;;;;83.40;52.53;;;19.90;83.70;;;;;;4948217;28;93906;-53
2023/07/24 01:37:35;;;;;;;83.75;52.60;;;19.90;82.80;;;;;;4956151;28;89559;-51
2023/07/24 01:40:02;;;;;;;84.43;52.85;;;19.90;83.10;;;;;;4945849;28;89703;-49
2023/07/24 01:42:28;;;;;;;83.03;52.67;;;19.90;84.90;;;;;;4945393;28;90744;-53
2023/07/24 01:44:55;;;;;;;83.20;52.70;;;19.90;83.20;;;;;;4952785;28;91595;-53
2023/07/24 01:47:21;;;;;;;83.25;52.47;;;19.90;83.20;;;;;;4950201;28;89481;-47
2023/07/24 01:49:47;;;;;;;83.18;52.70;;;19.90;83.50;;;;;;4948951;28;91018;-54
2023/07/24 01:52:13;;;;;;;83.75;52.95;;;19.80;82.40;;;;;;4948712;28;91522;-50
2023/07/24 01:54:38;;;;;;;84.35;52.78;;;19.80;82.50;;;;;;4947754;28;91941;-52
2023/07/24 01:57:04;;;;;;;82.97;52.60;;;19.90;83.10;;;;;;4950521;28;89611;-50
2023/07/24 01:59:30;;;;;;;83.43;52.65;;;19.80;82.70;;;;;;4946121;28;92461;-47
2023/07/24 02:01:56;;;;;;;83.68;52.58;;;19.80;82.60;;;;;;4956099;28;91084;-54
2023/07/24 02:04:22;;;;;;;85.90;53.13;;;19.80;83.10;;;;;;4934848;28;89596;-47
2023/07/24 02:06:51;;;;;;;83.05;52.55;;;19.90;87.00;;;;;;4952656;28;91839;-50
2023/07/24 02:09:18;;;;;;;85.47;52.97;;;19.80;88.70;;;;;;4946698;28;91518;-56
2023/07/24 02:11:44;;;;;;;83.40;52.83;;;19.80;83.50;;;;;;4948698;28;92676;-53
2023/07/24 02:14:11;;;;;;;83.35;52.63;;;19.80;83.00;;;;;;4949493;28;93290;-54
2023/07/24 02:16:37;;;;;;;84.20;52.83;;;19.80;83.70;;;;;;4950304;28;88671;-56
2023/07/24 02:19:02;;;;;;;83.63;52.75;;;19.80;84.50;;;;;;4948447;28;90324;-52
2023/07/24 02:21:28;;;;;;;83.32;52.53;;;19.80;83.60;;;;;;4945434;28;90625;-51
2023/07/24 02:23:54;;;;;;;83.10;52.72;;;19.80;83.20;;;;;;4951996;28;90511;-56
2023/07/24 02:26:19;;;;;;;82.95;52.85;;;19.70;82.70;;;;;;4948436;28;89398;-50
2023/07/24 02:28:45;;;;;;;82.82;52.50;;;19.80;82.50;;;;;;4951142;28;90241;-51
2023/07/24 02:31:11;;;;;;;83.72;52.55;;;19.80;82.50;;;;;;4949532;28;91522;-50
2023/07/24 02:33:37;;;;;;;83.28;52.42;;;19.70;82.20;;;;;;4953425;28;91200;-56
2023/07/24 02:36:03;;;;;;;82.63;52.53;;;19.70;82.00;;;;;;4948925;28;90640;-52
2023/07/24 02:38:29;;;;;;;83.40;52.58;;;19.70;81.80;;;;;;4943357;28;92645;-52
2023/07/24 02:40:54;;;;;;;83.70;52.67;;;19.70;83.30;;;;;;4951631;28;89811;-42
2023/07/24 02:43:20;;;;;;;83.15;52.75;;;19.70;82.70;;;;;;4946989;28;93104;-39
2023/07/24 02:45:45;;;;;;;83.47;52.85;;;19.60;82.30;;;;;;4945273;28;89572;-39
2023/07/24 02:48:11;;;;;;;83.97;52.63;;;19.60;82.50;;;;;;4942571;28;90742;-40
2023/07/24 02:50:37;;;;;;;82.68;52.45;;;19.60;82.60;;;;;;4951330;28;91617;-41
2023/07/24 02:53:03;;;;;;;83.00;52.55;;;19.60;83.40;;;;;;4953597;28;89617;-39
2023/07/24 02:55:28;;;;;;;83.55;52.70;;;19.60;84.00;;;;;;4950066;28;92209;-40
2023/07/24 02:57:54;;;;;;;83.32;52.78;;;19.60;84.90;;;;;;4949013;28;93365;-39
2023/07/24 03:00:19;;;;;;;83.13;52.58;;;19.50;84.00;;;;;;4930593;28;90838;-39
2023/07/24 03:02:45;;;;;;;82.70;52.45;;;19.50;84.40;;;;;;4951757;28;90066;-41
2023/07/24 03:05:11;;;;;;;84.05;52.92;;;19.50;84.30;;;;;;4954126;28;89192;-44
2023/07/24 03:07:36;;;;;;;82.90;52.53;;;19.50;84.10;;;;;;4953054;28;90151;-40
2023/07/24 03:10:03;;;;;;;84.90;52.65;;;19.50;84.20;;;;;;4948769;28;92380;-40
2023/07/24 03:12:28;;;;;;;83.30;52.65;;;19.50;84.20;;;;;;4948214;28;91891;-40
2023/07/24 03:14:54;;;;;;;83.13;52.85;;;19.50;84.30;;;;;;4952848;28;90922;-42
2023/07/24 03:17:20;;;;;;;83.65;52.75;;;19.50;84.60;;;;;;4949215;28;90099;-41
2023/07/24 03:19:48;;;;;;;83.20;52.90;;;19.40;84.10;;;;;;4949858;28;90989;-41
2023/07/24 03:22:13;;;;;;;82.85;52.65;;;19.40;85.20;;;;;;4948539;28;92726;-41
2023/07/24 03:24:39;;;;;;;83.57;52.78;;;19.40;83.90;;;;;;4956770;28;89742;-40
2023/07/24 03:27:05;;;;;;;83.30;52.72;;;19.40;84.60;;;;;;4949658;28;93375;-40
2023/07/24 03:29:30;;;;;;;83.25;52.97;;;19.40;84.50;;;;;;4951044;28;89141;-40
2023/07/24 03:31:56;;;;;;;83.15;53.00;;;19.40;85.30;;;;;;4946798;28;91486;-40
2023/07/24 03:34:21;;;;;;;83.00;52.60;;;19.40;84.50;;;;;;4949281;28;92022;-40
2023/07/24 03:36:47;;;;;;;83.22;52.75;;;19.40;85.30;;;;;;4949798;28;90715;-42
2023/07/24 03:39:13;;;;;;;83.00;52.85;;;19.40;84.40;;;;;;4955178;28;89819;-39
2023/07/24 03:41:39;;;;;;;83.10;52.92;;;19.40;84.00;;;;;;4950449;28;94797;-40
2023/07/24 03:44:05;;;;;;;83.85;52.72;;;19.40;84.60;;;;;;4955613;28;89602;-40
2023/07/24 03:46:32;;;;;;;82.95;52.67;;;19.30;84.50;;;;;;4950993;28;90351;-41
2023/07/24 03:48:58;;;;;;;84.00;52.78;;;19.30;84.50;;;;;;4946924;28;93272;-39
2023/07/24 03:51:23;;;;;;;83.30;52.72;;;19.30;84.90;;;;;;4955831;28;89360;-50
2023/07/24 03:53:49;;;;;;;83.18;52.75;;;19.30;86.50;;;;;;4951728;28;90799;-53
2023/07/24 03:56:14;;;;;;;82.78;52.72;;;19.30;84.90;;;;;;4948372;28;91716;-50
2023/07/24 03:58:40;;;;;;;82.85;52.22;;;19.30;84.90;;;;;;4948343;28;89524;-53
2023/07/24 04:01:06;;;;;;;83.00;52.35;;;19.30;85.10;;;;;;4955273;28;91237;-48
2023/07/24 04:03:32;;;;;;;82.47;52.38;;;19.30;85.00;;;;;;4944110;28;90953;-44
2023/07/24 04:05:58;;;;;;;83.20;52.78;;;19.30;84.90;;;;;;4946223;28;89601;-52
2023/07/24 04:08:24;;;;;;;82.90;52.75;;;19.30;86.00;;;;;;4931519;28;94294;-44
2023/07/24 04:10:50;;;;;;;83.15;52.67;;;19.30;84.40;;;;;;4950959;28;90709;-52
2023/07/24 04:13:15;;;;;;;83.25;52.53;;;19.30;88.00;;;;;;4945583;28;90899;-54
2023/07/24 04:15:41;;;;;;;82.40;52.47;;;19.20;85.10;;;;;;4951838;28;89859;-48
2023/07/24 04:18:07;;;;;;;83.32;52.80;;;19.20;84.80;;;;;;4955588;28;90280;-51
2023/07/24 04:20:32;;;;;;;82.47;52.38;;;19.20;84.90;;;;;;4952659;28;89412;-53
2023/07/24 04:22:58;;;;;;;82.60;52.65;;;19.20;84.70;;;;;;4933185;28;89580;-48
2023/07/24 04:25:24;;;;;;;82.55;52.53;;;19.30;85.60;;;;;;4949068;28;94773;-56
2023/07/24 04:27:49;;;;;;;83.45;52.65;;;19.20;87.70;;;;;;4937570;28;90545;-50
2023/07/24 04:30:16;;;;;;;82.78;52.47;;;19.20;84.80;;;;;;4949798;28;89775;-53
2023/07/24 04:32:41;;;;;;;83.50;52.85;;;19.20;87.90;;;;;;4954433;28;91559;-50
2023/07/24 04:35:07;;;;;;;82.80;52.55;;;19.20;86.20;;;;;;4952814;28;89664;-54
2023/07/24 04:37:33;;;;;;;82.85;52.50;;;19.20;84.90;;;;;;4952434;28;89911;-50
2023/07/24 04:39:59;;;;;;;83.93;52.45;;;19.20;86.00;;;;;;4950055;28;90256;-52
2023/07/24 04:42:24;;;;;;;83.10;52.55;;;19.20;87.90;;;;;;4954598;28;92014;-48
2023/07/24 04:44:51;;;;;;;82.82;52.55;;;19.20;84.30;;;;;;4953486;28;89520;-54
2023/07/24 04:47:17;;;;;;;83.38;52.88;;;19.20;85.20;;;;;;4960100;28;91819;-53
2023/07/24 04:49:42;;;;;;;83.32;52.63;;;19.20;86.00;;;;;;4948582;28;94327;-51
2023/07/24 04:52:08;;;;;;;83.25;52.58;;;19.20;84.30;;;;;;4955110;28;90169;-51
2023/07/24 04:54:34;;;;;;;82.63;52.55;;;19.20;84.00;;;;;;4952532;28;90540;-52
2023/07/24 04:57:00;;;;;;;82.93;52.60;;;19.30;84.30;;;;;;4950492;28;89639;-54
2023/07/24 04:59:26;;;;;;;83.15;52.50;;;19.20;84.90;;;;;;4953803;28;89557;-50
2023/07/24 05:01:51;;;;;;;82.88;52.90;;;19.30;84.00;;;;;;4936519;28;89249;-45
2023/07/24 05:04:17;;;;;;;83.50;52.55;;;19.20;83.10;;;;;;4953792;28;89924;-54
2023/07/24 05:06:43;;;;;;;83.25;52.75;;;19.30;85.40;;;;;;4953711;28;92291;-51
2023/07/24 05:09:08;;;;;;;83.22;52.85;;;19.30;86.00;;;;;;4951139;28;90566;-53
2023/07/24 05:11:34;;;;;;;83.75;52.95;;;19.30;84.80;;;;;;4953045;28;89592;-40
2023/07/24 05:13:59;;;;;;;82.93;52.75;;;19.30;84.50;;;;;;4952998;28;90934;-39
2023/07/24 05:16:25;;;;;;;83.38;52.78;;;19.30;84.60;;;;;;4953276;28;91265;-42
2023/07/24 05:18:50;;;;;;;82.88;52.88;;;19.30;86.20;;;;;;4954918;28;92019;-39
2023/07/24 05:21:16;;;;;;;83.30;52.67;;;19.30;87.20;;;;;;4952608;28;90385;-40
2023/07/24 05:23:42;;;;;;;82.95;52.75;;;19.30;85.90;;;;;;4954316;28;89375;-41
2023/07/24 05:26:07;;;;;;;83.72;52.83;;;19.30;83.40;;;;;;4954541;28;90796;-41
2023/07/24 05:28:33;;;;;;;83.47;52.85;;;19.30;83.90;;;;;;4955530;28;89952;-39
2023/07/24 05:31:03;;;;;;;83.57;52.75;;;19.30;83.80;;;;;;4956358;28;88920;-39
2023/07/24 05:33:30;;;;;;;82.73;52.67;;;19.30;84.90;;;;;;4954593;28;92618;-41
2023/07/24 05:36:00;;;;;;;83.30;52.88;;;19.30;82.90;;;;;;4951428;28;92244;-40
2023/07/24 05:38:26;;;;;;;84.00;52.72;;;19.30;87.30;;;;;;4948925;28;92093;-41
2023/07/24 05:40:59;;;;;;;82.95;52.63;;;19.30;83.30;;;;;;4954454;28;90905;-41
2023/07/24 05:43:25;;;;;;;84.75;53.08;;;19.40;84.70;;;;;;4954197;28;90528;-41
2023/07/24 05:45:54;;;;;;;83.30;52.92;;;19.40;86.80;;;;;;4956402;28;90020;-42
2023/07/24 05:48:20;;;;;;;83.18;52.65;;;19.30;83.50;;;;;;4953868;28;90405;-40
2023/07/24 05:50:45;;;;;;;83.32;52.97;;;19.40;83.10;;;;;;4953045;28;90005;-41
2023/07/24 05:53:11;;;;;;;82.95;52.85;;;19.40;83.70;;;;;;4951315;28;94731;-40
2023/07/24 05:55:37;;;;;;;93.18;59.85;;;19.40;84.30;;;;;;4954066;28;92944;-41
2023/07/24 05:58:02;;;;;;;94.05;60.15;;;19.40;84.00;;;;;;4952386;28;89713;-41
2023/07/24 06:00:28;;;;;;;87.50;56.15;;;19.40;84.60;;;;;;4948200;28;89571;-41
2023/07/24 06:02:54;;;;;;;93.63;60.70;;;19.40;83.00;;;;;;4954256;28;91230;-40
2023/07/24 06:05:20;;;;;;;90.30;58.05;;;19.40;84.70;;;;;;4953869;28;92193;-39
2023/07/24 06:07:46;;;;;;;89.63;57.50;;;19.40;86.80;;;;;;4951371;28;89497;-41
2023/07/24 06:10:12;;;;;;;92.53;58.85;;;19.40;83.70;;;;;;4952356;28;90160;-49
2023/07/24 06:12:38;;;;;;;90.00;56.67;;;19.40;83.40;;;;;;4957098;28;91048;-48
2023/07/24 06:15:04;;;;;;;91.80;56.85;;;19.50;82.60;;;;;;4948752;28;89958;-49
2023/07/24 06:17:30;;;;;;;86.40;55.05;;;19.40;83.80;;;;;;4951715;28;89286;-48
2023/07/24 06:19:56;;;;;;;91.97;58.90;;;19.50;82.10;;;;;;4946639;28;88825;-52
2023/07/24 06:22:22;;;;;;;89.20;56.03;;;19.50;86.00;;;;;;4948207;28;91412;-46
2023/07/24 06:24:48;;;;;;;95.57;58.42;;;19.50;82.10;;;;;;4948059;28;92935;-47
2023/07/24 06:27:13;;;;;;;92.15;58.78;;;19.60;85.50;;;;;;4950359;28;92006;-52
2023/07/24 06:29:39;;;;;;;90.63;57.22;;;19.60;89.30;;;;;;4946185;28;91660;-51
2023/07/24 06:32:05;;;;;;;97.00;59.05;;;19.80;86.80;;;;;;4951095;28;89721;-51
2023/07/24 06:34:31;;;;;;;91.47;57.40;;;19.70;84.70;;;;;;4946021;28;92057;-54
2023/07/24 06:36:56;;;;;;;97.28;58.67;;;19.80;84.80;;;;;;4948811;28;91003;-55
2023/07/24 06:39:22;;;;;;;91.07;56.38;;;19.80;84.90;;;;;;4952873;28;93346;-44
2023/07/24 06:41:48;;;;;;;92.28;56.33;;;19.80;81.90;;;;;;4946933;28;95306;-47
2023/07/24 06:44:13;;;;;;;91.30;56.85;;;19.80;81.70;;;;;;4957358;28;91594;-47
2023/07/24 06:46:39;;;;;;;102.55;58.88;;;19.80;81.70;;;;;;4947922;28;90045;-50
2023/07/24 06:49:05;;;;;;;90.55;55.83;;;19.90;82.90;;;;;;4951940;28;90708;-53
2023/07/24 06:51:30;;;;;;;102.22;58.60;;;19.90;82.60;;;;;;4947438;28;92167;-51
2023/07/24 06:53:56;;;;;;;91.78;55.67;;;19.90;82.80;;;;;;4947905;28;91185;-53
2023/07/24 06:56:21;;;;;;;91.68;55.67;;;19.90;81.20;;;;;;4949951;28;89587;-53
2023/07/24 06:58:47;;;;;;;98.85;59.00;;;19.90;82.40;;;;;;4935689;28;93264;-52
2023/07/24 07:01:12;;;;;;;92.38;57.15;;;19.90;83.80;;;;;;4944121;28;91126;-47
2023/07/24 07:03:38;;;;;;;95.10;57.53;;;19.90;82.10;;;;;;4951216;28;89524;-52
2023/07/24 07:06:05;;;;;;;87.15;54.83;;;19.90;82.60;;;;;;4951587;28;90309;-48
2023/07/24 07:08:31;;;;;;;89.80;55.72;;;19.90;81.20;;;;;;4955321;28;90260;-51
2023/07/24 07:10:57;;;;;;;88.85;55.20;;;19.90;80.70;;;;;;4953637;28;89759;-47
2023/07/24 07:13:23;;;;;;;90.38;54.97;;;19.90;80.70;;;;;;4950850;28;94559;-51
2023/07/24 07:15:49;;;;;;;89.13;56.08;;;20.00;80.50;;;;;;4951478;28;91367;-53
2023/07/24 07:18:14;;;;;;;88.68;55.80;;;20.00;80.80;;;;;;4955151;28;89625;-50
2023/07/24 07:20:46;;;;;;;90.57;55.50;;;20.10;80.00;;;;;;4952533;28;89966;-54
2023/07/24 07:23:12;;;;;;;89.03;55.67;;;20.10;80.40;;;;;;4946283;28;91559;-50
2023/07/24 07:25:37;;;;;;;91.65;55.17;;;20.10;80.20;;;;;;4949690;28;90773;-50
2023/07/24 07:28:03;;;;;;;89.40;55.78;;;20.10;80.20;;;;;;4951406;28;89960;-49
2023/07/24 07:30:29;;;;;;;88.07;55.15;;;20.10;81.10;;;;;;4950638;28;89570;-49
2023/07/24 07:32:54;;;;;;;92.65;55.35;;;20.10;80.30;;;;;;4947979;28;92012;-49
2023/07/24 07:35:20;;;;;;;89.07;55.28;;;20.10;80.50;;;;;;4955511;28;89486;-54
2023/07/24 07:37:45;;;;;;;87.05;54.92;;;20.10;80.20;;;;;;4949235;28;93278;-52
2023/07/24 07:40:11;;;;;;;90.72;55.38;;;20.10;80.40;;;;;;4949714;28;90887;-51
2023/07/24 07:42:37;;;;;;;88.43;55.13;;;20.10;80.60;;;;;;4954084;28;93127;-51
2023/07/24 07:45:03;;;;;;;90.07;56.42;;;20.10;81.20;;;;;;4953063;28;89669;-52
2023/07/24 07:47:30;;;;;;;87.05;54.72;;;20.10;81.30;;;;;;4953116;28;89921;-51
2023/07/24 07:49:56;;;;;;;89.97;55.20;;;20.10;80.90;;;;;;4945556;28;90873;-47
2023/07/24 07:52:22;;;;;;;88.07;54.85;;;20.10;80.70;;;;;;4949526;28;91560;-44
2023/07/24 07:54:50;;;;;;;89.25;54.78;;;20.10;80.70;;;;;;4952417;28;91722;-53
2023/07/24 07:57:16;;;;;;;89.90;55.92;;;20.10;80.40;;;;;;4956283;28;88950;-56
2023/07/24 07:59:42;;;;;;;87.80;54.55;;;20.10;80.70;;;;;;4948122;28;90437;-50
2023/07/24 08:02:08;;;;;;;88.72;55.05;;;20.10;81.00;;;;;;4934240;28;89634;-52
2023/07/24 08:04:33;;;;;;;87.60;55.03;;;20.10;81.00;;;;;;4954792;28;92338;-51
2023/07/24 08:06:59;;;;;;;88.32;54.92;;;20.10;80.40;;;;;;4938492;28;91732;-47
2023/07/24 08:09:25;;;;;;;89.82;56.00;;;20.10;80.40;;;;;;4950224;28;89546;-46
2023/07/24 08:11:51;;;;;;;88.78;55.35;;;20.10;80.60;;;;;;4958524;28;90398;-50
2023/07/24 08:14:17;;;;;;;89.32;55.28;;;20.10;80.30;;;;;;4955863;28;91492;-50
2023/07/24 08:16:43;;;;;;;87.60;55.15;;;20.10;80.00;;;;;;4952991;28;92561;-46
2023/07/24 08:19:09;;;;;;;89.88;55.55;;;20.20;80.00;;;;;;4949562;28;90966;-50
2023/07/24 08:21:34;;;;;;;88.35;55.05;;;20.30;80.40;;;;;;4954149;28;89993;-50
2023/07/24 08:24:01;;;;;;;89.03;55.50;;;20.30;79.10;;;;;;4952862;28;89602;-51
2023/07/24 08:26:27;;;;;;;88.68;55.80;;;20.40;78.60;;;;;;4952919;28;89636;-54
2023/07/24 08:28:53;;;;;;;87.13;54.72;;;20.40;79.60;;;;;;4953459;28;91214;-44
2023/07/24 08:31:19;;;;;;;91.50;56.42;;;20.40;79.20;;;;;;4953885;28;90424;-53
2023/07/24 08:33:45;;;;;;;88.00;54.85;;;20.40;80.40;;;;;;4953063;28;91228;-52
2023/07/24 08:36:13;;;;;;;89.50;55.47;;;20.40;79.10;;;;;;4952019;28;89453;-54
2023/07/24 08:38:40;;;;;;;90.43;56.40;;;20.50;79.00;;;;;;4956876;28;93071;-49
2023/07/24 08:41:12;;;;;;;89.25;55.50;;;20.50;80.30;;;;;;4952551;28;93351;-40
2023/07/24 08:43:39;;;;;;;87.78;55.05;;;20.50;79.50;;;;;;4958095;28;90740;-40
2023/07/24 08:46:06;;;;;;;88.18;55.58;;;20.60;78.60;;;;;;4955292;28;88785;-43
2023/07/24 08:48:37;;;;;;;88.07;54.88;;;20.60;78.60;;;;;;4953454;28;89976;-40
2023/07/24 08:51:12;;;;;;;;;;;20.60;78.40;;;;;;4956634;28;93965;-40
2023/07/24 08:53:41;;;;;;;89.50;54.80;;;20.70;78.20;;;;;;4953091;28;93549;-39
2023/07/24 08:56:08;;;;;;;90.32;55.58;;;20.70;78.20;;;;;;4953573;28;90184;-42
2023/07/24 08:58:34;;;;;;;90.55;56.58;;;20.80;78.20;;;;;;4954755;28;93390;-40
2023/07/24 09:01:01;;;;;;;88.35;55.17;;;20.80;78.80;;;;;;4957701;28;89713;-42
2023/07/24 09:03:27;;;;;;;88.03;55.05;;;20.70;78.50;;;;;;4955709;28;90410;-40
2023/07/24 09:05:53;;;;;;;89.82;55.85;;;20.80;78.50;;;;;;4952268;28;89614;-40
2023/07/24 09:08:39;;;;;;;87.68;54.85;;;20.80;78.70;;;;;;4949184;28;90290;-41
2023/07/24 09:11:06;;;;;;;88.25;54.88;;;20.90;78.00;;;;;;4953381;28;91265;-43
2023/07/24 09:13:34;;;;;;;88.05;54.88;;;20.90;77.80;;;;;;4956420;28;89613;-40
2023/07/24 09:16:00;;;;;;;88.70;54.78;;;20.90;78.00;;;;;;4952705;28;89834;-40
2023/07/24 09:18:26;;;;;;;88.47;54.75;;;20.90;78.60;;;;;;4949269;28;91187;-40
2023/07/24 09:20:51;;;;;;;87.50;55.03;;;20.90;78.30;;;;;;4955595;28;90386;-41
2023/07/24 09:23:27;;;;;;;87.85;54.90;;;20.90;78.40;;;;;;4950138;28;89823;-40
2023/07/24 09:25:53;;;;;;;91.95;56.28;;;20.90;78.40;;;;;;4952892;28;89987;-43
2023/07/24 09:28:19;;;;;;;89.40;55.03;;;21.00;79.50;;;;;;4937218;28;92325;-40
2023/07/24 09:30:53;;;;;;;90.05;54.75;;;21.00;78.70;;;;;;4954767;28;89986;-40
2023/07/24 09:33:18;;;;;;;88.28;55.10;;;21.00;78.00;;;;;;4954238;28;89619;-41
2023/07/24 09:35:44;;;;;;;88.25;54.90;;;21.10;78.50;;;;;;4948661;28;92586;-40
2023/07/24 09:38:11;;;;;;;90.68;55.22;;;21.10;77.80;;;;;;4951550;28;90285;-41
2023/07/24 09:40:41;;;;;;;88.32;54.90;;;21.20;77.50;;;;;;4953354;28;89528;-50
2023/07/24 09:43:19;;;;;;;87.65;54.85;;;21.20;77.40;;;;;;4953359;28;91400;-54
2023/07/24 09:45:46;;;;;;;89.65;55.53;;;21.30;77.10;;;;;;4949902;28;89594;-54
2023/07/24 09:48:14;;;;;;;88.57;55.25;;;21.40;77.30;;;;;;4939871;28;90489;-52
2023/07/24 09:50:42;;;;;;;88.32;55.10;;;21.50;76.50;;;;;;4953938;28;89859;-53
2023/07/24 09:53:21;;;;;;;88.38;55.08;;;21.60;76.40;;;;;;4952041;28;93255;-56
2023/07/24 09:55:51;;;;;;;90.10;55.53;;;21.60;76.10;;;;;;4957265;28;89530;-52
2023/07/24 09:58:21;;;;;;;88.05;55.25;;;21.60;76.10;;;;;;4957803;28;89378;-52
2023/07/24 10:00:48;;;;;;;88.65;55.58;;;21.70;75.90;;;;;;4951058;28;89849;-47
2023/07/24 10:03:15;;;;;;;90.05;55.83;;;21.70;76.30;;;;;;4955425;28;89792;-53
2023/07/24 10:05:43;;;;;;;88.68;55.03;;;21.70;76.30;;;;;;4957755;28;90970;-49
2023/07/24 10:08:14;;;;;;;88.80;55.05;;;21.70;75.60;;;;;;4946685;28;92449;-52
2023/07/24 10:10:39;;;;;;;89.07;55.33;;;21.70;75.70;;;;;;4950615;28;93509;-55
2023/07/24 10:13:07;;;;;;;89.68;55.60;;;21.80;76.10;;;;;;4951331;28;90182;-46
2023/07/24 10:15:33;;;;;;;88.55;55.22;;;21.80;76.50;;;;;;4953977;28;90000;-52
2023/07/24 10:18:06;;;;;;;89.65;55.97;;;21.80;75.90;;;;;;4949329;28;90679;-51
2023/07/24 10:20:39;;;;;;;91.40;56.13;;;21.90;76.30;;;;;;4951406;28;90063;-50
2023/07/24 10:23:10;;;;;;;88.53;55.38;;;22.00;75.80;;;;;;4949881;28;90694;-54
2023/07/24 10:25:43;;;;;;;91.80;56.38;;;22.00;75.40;;;;;;4959122;28;88869;-51
2023/07/24 10:28:11;;;;;;;91.47;56.47;;;22.10;76.20;;;;;;4958465;28;90374;-52
2023/07/24 10:30:41;;;;;;;90.38;55.95;;;22.10;76.40;;;;;;4951017;28;91017;-53
2023/07/24 10:33:07;;;;;;;89.80;55.67;;;22.10;75.60;;;;;;4954239;28;90624;-55
2023/07/24 10:35:39;;;;;;;88.47;55.42;;;22.10;75.60;;;;;;4952709;28;92152;-56
2023/07/24 10:38:05;;;;;;;89.45;55.13;;;22.20;75.20;;;;;;4953257;28;90201;-55
2023/07/24 10:40:30;;;;;;;89.82;55.65;;;22.20;74.60;;;;;;4949283;28;89876;-51
2023/07/24 10:43:06;;;;;;;90.80;55.38;;;22.30;74.50;;;;;;4948932;28;89831;-50
2023/07/24 10:45:52;;;;;;;89.88;55.78;;;22.30;74.20;;;;;;4950488;28;91914;-51
2023/07/24 10:48:24;;;;;;;91.22;56.22;;;22.30;74.50;;;;;;4958304;28;89588;-53
2023/07/24 10:50:51;;;;;;;88.80;55.35;;;22.30;75.80;;;;;;4955410;28;90010;-44
2023/07/24 10:53:21;;;;;;;88.82;55.30;;;22.40;74.40;;;;;;4952285;28;89999;-53
2023/07/24 10:55:47;;;;;;;89.38;55.60;;;22.50;73.90;;;;;;4952589;28;89473;-49
2023/07/24 10:58:14;;;;;;;89.45;55.40;;;22.50;75.10;;;;;;4948600;28;92767;-52
2023/07/24 11:00:43;;;;;;;92.55;56.28;;;22.60;74.30;;;;;;4950461;28;90929;-47
2023/07/24 11:03:13;;;;;;;89.80;55.78;;;22.60;74.00;;;;;;4954592;28;90628;-53
2023/07/24 11:05:43;;;;;;;91.65;56.28;;;22.70;74.00;;;;;;4949930;28;90197;-49
2023/07/24 11:08:14;;;;;;;89.88;55.63;;;22.70;74.40;;;;;;4947049;28;90273;-52
2023/07/24 11:10:50;;;;;;;89.28;55.50;;;22.70;73.50;;;;;;4946548;28;89983;-51
2023/07/24 11:13:17;;;;;;;89.50;55.95;;;22.80;73.90;;;;;;4954546;28;90004;-53
2023/07/24 11:15:43;;;;;;;89.97;55.33;;;22.70;73.80;;;;;;4951517;28;89724;-54
2023/07/24 11:18:09;;;;;;;90.45;55.80;;;22.60;74.20;;;;;;4954538;28;89818;-54
2023/07/24 11:20:57;;;;;;;89.47;55.50;;;22.60;75.20;;;;;;4952740;28;93327;-53
2023/07/24 11:23:24;;;;;;;88.63;55.25;;;22.50;75.00;;;;;;4944078;28;90517;-54
2023/07/24 11:25:54;;;;;;;89.20;55.72;;;22.40;75.20;;;;;;4952640;28;89851;-56
2023/07/24 11:28:20;;;;;;;90.65;55.67;;;22.40;75.60;;;;;;4952102;28;89439;-54
2023/07/24 11:30:46;;;;;;;89.13;55.55;;;22.40;77.50;;;;;;4945034;28;92996;-52
2023/07/24 11:33:15;;;;;;;88.78;55.38;;;22.30;75.30;;;;;;4952287;28;89536;-54
2023/07/24 11:35:41;;;;;;;88.68;55.03;;;22.30;75.40;;;;;;4952040;28;89492;-52
2023/07/24 11:38:09;;;;;;;89.20;55.17;;;22.30;75.60;;;;;;4950006;28;89985;-53
2023/07/24 11:40:42;;;;;;;88.68;55.42;;;22.20;75.90;;;;;;4947795;28;89143;-52
2023/07/24 11:43:22;;;;;;;89.88;55.85;;;22.20;75.50;;;;;;4949254;28;91289;-54
2023/07/24 11:45:52;;;;;;;89.78;55.72;;;22.30;75.20;;;;;;4949170;28;89727;-52
2023/07/24 11:48:18;;;;;;;89.25;55.63;;;22.30;74.30;;;;;;4955292;28;91088;-51
2023/07/24 11:50:52;;;;;;;89.10;55.55;;;22.40;74.50;;;;;;4952718;28;90714;-51
2023/07/24 11:53:38;;;;;;;90.15;55.78;;;22.40;74.40;;;;;;4935427;28;89498;-51
2023/07/24 11:56:14;;;;;;;90.75;56.00;;;22.40;74.00;;;;;;4950864;28;91441;-49
2023/07/24 11:58:39;;;;;;;88.65;55.50;;;22.50;73.90;;;;;;4948337;28;90385;-55
2023/07/24 12:01:05;;;;;;;88.90;55.45;;;22.50;74.20;;;;;;4956900;28;92389;-40
2023/07/24 12:03:31;;;;;;;88.88;55.55;;;22.50;73.80;;;;;;4953657;28;90248;-40
2023/07/24 12:05:57;;;;;;;89.05;55.72;;;22.50;73.90;;;;;;4951390;28;88843;-43
2023/07/24 12:08:35;;;;;;;91.25;56.03;;;22.50;74.00;;;;;;4946780;28;90048;-41
2023/07/24 12:11:02;;;;;;;88.72;55.60;;;22.50;74.20;;;;;;4951491;28;93425;-52
2023/07/24 12:13:28;;;;;;;89.15;55.30;;;22.50;73.90;;;;;;4951136;28;90484;-56
2023/07/24 12:15:54;;;;;;;89.20;55.80;;;22.60;74.20;;;;;;4948466;28;89815;-55
2023/07/24 12:18:20;;;;;;;89.60;55.60;;;22.60;73.40;;;;;;4950483;28;90940;-55
2023/07/24 12:20:45;;;;;;;90.03;55.85;;;22.70;73.60;;;;;;4950307;28;89518;-53
2023/07/24 12:23:11;;;;;;;88.82;55.35;;;22.70;73.40;;;;;;4947410;28;91083;-53
2023/07/24 12:25:37;;;;;;;88.97;55.90;;;22.80;73.20;;;;;;4948968;28;91054;-55
2023/07/24 12:28:02;;;;;;;89.32;55.40;;;22.80;73.00;;;;;;4949675;28;90983;-45